Time;durP1;ratioP1;P1;durP2;ratioP2;P2;SDS_P1;SDS_P2;PMS_P1;PMS_P2;Temp;Humidity;BMP_temperature;BMP_pressure;BME280_temperature;BME280_humidity;BME280_pressure;Samples;Min_cycle;Max_cycle;Signal;HPM_P1;HPM_P2
2022/05/27 00:00:48;;;;;;;2.83;1.97;;;16.60;99.90;;;;;;5006735;28;20432;-86
2022/05/27 00:03:15;;;;;;;3.17;1.50;;;16.60;99.90;;;;;;5005289;28;20181;-86
2022/05/27 00:05:40;;;;;;;2.97;1.60;;;16.60;99.90;;;;;;5005193;28;20181;-84
2022/05/27 00:08:06;;;;;;;2.50;1.60;;;16.60;99.90;;;;;;5005649;28;20958;-84
2022/05/27 00:10:34;;;;;;;2.97;1.57;;;16.60;99.90;;;;;;5004657;28;20201;-84
2022/05/27 00:12:59;;;;;;;4.33;2.10;;;16.60;99.90;;;;;;5002614;28;21017;-83
2022/05/27 00:15:25;;;;;;;3.03;1.90;;;16.70;99.90;;;;;;4996877;28;20420;-83
2022/05/27 00:17:50;;;;;;;3.07;1.70;;;16.60;99.90;;;;;;4996500;28;20173;-84
2022/05/27 00:20:16;;;;;;;3.33;1.80;;;16.60;99.90;;;;;;4997206;28;20200;-83
2022/05/27 00:22:42;;;;;;;3.53;1.63;;;16.60;99.90;;;;;;4996449;28;20279;-84
2022/05/27 00:25:08;;;;;;;4.90;2.00;;;16.60;99.90;;;;;;4996833;28;20614;-83
2022/05/27 00:27:34;;;;;;;2.80;1.63;;;16.40;99.90;;;;;;4996169;28;20181;-83
2022/05/27 00:29:59;;;;;;;4.80;2.30;;;16.40;99.90;;;;;;5014023;28;20428;-84
2022/05/27 00:32:25;;;;;;;3.80;2.00;;;16.40;99.90;;;;;;5014134;28;20259;-84
2022/05/27 00:34:50;;;;;;;5.13;3.13;;;16.40;99.90;;;;;;4996625;28;20227;-84
2022/05/27 00:37:16;;;;;;;4.43;2.10;;;16.30;99.90;;;;;;5013961;28;20220;-85
2022/05/27 00:39:42;;;;;;;4.20;2.33;;;16.30;99.90;;;;;;5013940;28;20203;-83
2022/05/27 00:42:07;;;;;;;4.03;2.30;;;16.30;99.90;;;;;;5000045;28;20177;-85
2022/05/27 00:44:33;;;;;;;4.37;2.63;;;16.30;99.90;;;;;;5001852;28;20173;-85
2022/05/27 00:47:06;;;;;;;3.80;2.30;;;16.30;99.90;;;;;;5019626;28;20206;-86
2022/05/27 00:49:33;;;;;;;4.70;2.70;;;16.20;99.90;;;;;;5001780;28;20463;-85
2022/05/27 00:52:07;;;;;;;5.43;2.53;;;16.20;99.90;;;;;;5001866;28;20431;-86
2022/05/27 00:54:34;;;;;;;4.47;2.50;;;16.20;99.90;;;;;;5000517;28;20571;-85
2022/05/27 00:57:11;;;;;;;3.73;2.50;;;16.30;99.90;;;;;;5019122;28;20416;-84
2022/05/27 00:59:47;;;;;;;5.07;2.60;;;16.30;99.90;;;;;;5001242;28;20813;-84
2022/05/27 01:02:12;;;;;;;4.90;2.80;;;16.30;99.90;;;;;;5000767;28;20414;-84
2022/05/27 01:04:39;;;;;;;4.50;2.20;;;16.40;99.90;;;;;;5000521;28;20448;-85
2022/05/27 01:07:05;;;;;;;5.30;2.90;;;16.40;99.90;;;;;;5018221;28;20208;-83
2022/05/27 01:09:33;;;;;;;6.03;3.03;;;16.20;99.90;;;;;;5000772;28;20412;-83
2022/05/27 01:12:27;;;;;;;7.40;3.20;;;16.20;99.90;;;;;;5018653;28;20962;-83
2022/05/27 01:15:21;;;;;;;4.47;2.40;;;16.20;99.90;;;;;;5018118;28;20500;-85
2022/05/27 01:18:05;;;;;;;3.60;2.20;;;16.30;99.90;;;;;;5018015;28;20408;-85
2022/05/27 01:20:55;;;;;;;5.10;2.00;;;16.20;99.90;;;;;;5017926;28;20428;-84
2022/05/27 01:23:36;;;;;;;5.23;2.47;;;16.10;99.90;;;;;;4996193;28;20428;-83
2022/05/27 01:26:23;;;;;;;3.97;2.80;;;16.10;99.90;;;;;;5014005;28;20418;-83
2022/05/27 01:29:00;;;;;;;2.83;1.87;;;16.10;99.90;;;;;;4996255;28;20420;-83
2022/05/27 01:31:39;;;;;;;3.50;1.97;;;16.00;99.90;;;;;;4996692;28;20447;-83
2022/05/27 01:34:14;;;;;;;3.67;1.90;;;16.00;99.90;;;;;;4996052;28;20880;-83
2022/05/27 01:36:45;;;;;;;3.53;2.40;;;16.10;99.90;;;;;;4996132;28;20416;-84
2022/05/27 01:39:53;;;;;;;4.00;2.80;;;16.10;99.90;;;;;;4996320;28;20783;-83
2022/05/27 01:42:27;;;;;;;6.10;2.70;;;16.00;99.90;;;;;;4994882;28;20432;-83
2022/05/27 01:45:28;;;;;;;5.13;2.23;;;16.00;99.90;;;;;;4995993;28;20404;-83
2022/05/27 01:48:20;;;;;;;5.87;3.00;;;16.00;99.90;;;;;;4990505;28;20918;-83
2022/05/27 01:51:04;;;;;;;3.73;2.67;;;16.00;99.90;;;;;;4995788;28;20441;-82
2022/05/27 01:53:32;;;;;;;4.17;2.90;;;16.00;99.90;;;;;;5013906;28;20448;-83
2022/05/27 01:56:08;;;;;;;4.20;2.50;;;16.00;99.90;;;;;;4995420;28;20952;-83
2022/05/27 01:58:45;;;;;;;5.20;3.10;;;15.90;99.90;;;;;;4996090;28;20412;-82
2022/05/27 02:01:17;;;;;;;6.30;3.13;;;16.00;99.90;;;;;;4995568;28;20435;-82
2022/05/27 02:03:49;;;;;;;7.20;3.30;;;16.00;99.90;;;;;;4995852;28;20511;-83
2022/05/27 02:06:27;;;;;;;7.00;3.00;;;15.90;99.90;;;;;;4995132;28;20415;-83
2022/05/27 02:09:05;;;;;;;5.17;2.57;;;16.00;99.90;;;;;;4996075;28;20412;-83
2022/05/27 02:11:32;;;;;;;4.17;2.87;;;16.00;99.90;;;;;;4995649;28;20975;-84
2022/05/27 02:14:08;;;;;;;3.93;2.70;;;15.90;99.90;;;;;;5012600;28;20515;-83
2022/05/27 02:16:41;;;;;;;4.50;2.70;;;15.90;99.90;;;;;;4994855;28;20499;-83
2022/05/27 02:19:19;;;;;;;3.50;2.20;;;15.90;99.90;;;;;;4995879;28;20442;-83
2022/05/27 02:21:54;;;;;;;5.30;2.60;;;15.90;99.90;;;;;;4994946;28;20482;-82
2022/05/27 02:24:36;;;;;;;4.30;2.00;;;15.90;99.90;;;;;;4995534;28;20451;-82
2022/05/27 02:27:23;;;;;;;4.67;2.27;;;15.90;99.90;;;;;;5012661;28;20446;-83
2022/05/27 02:29:57;;;;;;;2.80;1.70;;;15.90;99.90;;;;;;4995347;28;20451;-83
2022/05/27 02:32:31;;;;;;;4.50;2.00;;;15.90;99.90;;;;;;4994926;28;20404;-82
2022/05/27 02:35:17;;;;;;;4.10;2.53;;;15.90;99.90;;;;;;4995143;28;20407;-82
2022/05/27 02:37:50;;;;;;;3.27;2.43;;;15.90;99.90;;;;;;4994846;28;20419;-83
2022/05/27 02:40:22;;;;;;;4.00;2.33;;;15.90;99.90;;;;;;4994919;28;20436;-82
2022/05/27 02:43:23;;;;;;;4.40;2.60;;;15.90;99.90;;;;;;4995260;28;20423;-83
2022/05/27 02:46:12;;;;;;;4.63;2.50;;;15.70;99.90;;;;;;4935677;29;20488;-82
2022/05/27 02:48:43;;;;;;;5.03;2.30;;;15.50;99.90;;;;;;4954492;28;20420;-82
2022/05/27 02:51:42;;;;;;;5.17;2.60;;;15.40;99.90;;;;;;5012552;28;20943;-83
2022/05/27 02:54:32;;;;;;;4.83;2.53;;;15.30;99.90;;;;;;4994585;28;20510;-83
2022/05/27 02:57:19;;;;;;;4.40;2.80;;;15.10;99.90;;;;;;4992832;28;20409;-82
2022/05/27 02:59:46;;;;;;;3.73;3.10;;;15.00;99.90;;;;;;4975170;28;20441;-83
2022/05/27 03:02:14;;;;;;;4.43;2.50;;;15.00;99.90;;;;;;4993208;28;20416;-82
2022/05/27 03:04:47;;;;;;;4.17;2.70;;;14.90;99.90;;;;;;4975049;28;20421;-82
2022/05/27 03:07:34;;;;;;;4.13;3.20;;;14.90;99.90;;;;;;4974735;28;20420;-82
2022/05/27 03:10:05;;;;;;;6.73;3.67;;;14.80;99.90;;;;;;4992488;28;20436;-83
2022/05/27 03:12:49;;;;;;;4.67;2.80;;;14.80;99.90;;;;;;4975325;28;20464;-82
2022/05/27 03:15:35;;;;;;;4.00;2.33;;;14.70;99.90;;;;;;4974914;28;20780;-82
2022/05/27 03:18:19;;;;;;;3.70;2.40;;;14.60;99.90;;;;;;4975057;28;20432;-82
2022/05/27 03:20:57;;;;;;;4.00;2.30;;;14.60;99.90;;;;;;4974821;28;20444;-82
2022/05/27 03:23:58;;;;;;;11.57;3.30;;;14.50;99.90;;;;;;4975048;28;20439;-82
2022/05/27 03:26:42;;;;;;;3.87;2.50;;;14.40;99.90;;;;;;4956336;28;20560;-83
2022/05/27 03:29:28;;;;;;;4.10;2.73;;;14.30;99.90;;;;;;4978592;28;20474;-82
2022/05/27 03:32:24;;;;;;;3.20;2.10;;;14.30;99.90;;;;;;4978018;28;20424;-82
2022/05/27 03:34:53;;;;;;;5.43;2.80;;;14.30;99.90;;;;;;4978409;28;20800;-82
2022/05/27 03:37:40;;;;;;;4.10;2.73;;;14.20;99.90;;;;;;4995382;28;20444;-83
2022/05/27 03:40:32;;;;;;;4.63;2.57;;;14.30;99.90;;;;;;4995814;28;20511;-82
2022/05/27 03:42:58;;;;;;;4.50;2.80;;;14.40;99.90;;;;;;4973715;28;20429;-83
2022/05/27 03:45:24;;;;;;;4.00;2.60;;;14.40;99.90;;;;;;4995547;28;20405;-83
2022/05/27 03:47:51;;;;;;;4.93;2.60;;;14.30;99.90;;;;;;4977766;28;20188;-82
2022/05/27 03:50:21;;;;;;;3.90;2.60;;;14.30;99.90;;;;;;4977887;28;20465;-82
2022/05/27 03:52:50;;;;;;;3.77;2.40;;;14.30;99.90;;;;;;4977799;28;20514;-82
2022/05/27 03:55:19;;;;;;;4.30;2.60;;;14.30;99.90;;;;;;4978000;28;20429;-82
2022/05/27 03:57:45;;;;;;;6.63;2.60;;;14.30;99.90;;;;;;4995565;28;20791;-82
2022/05/27 04:00:13;;;;;;;5.40;2.60;;;14.30;99.90;;;;;;4977528;28;20436;-82
2022/05/27 04:02:39;;;;;;;4.10;2.20;;;14.30;99.90;;;;;;4977895;28;20204;-82
2022/05/27 04:05:07;;;;;;;7.67;3.00;;;14.20;99.90;;;;;;4995137;28;21112;-82
2022/05/27 04:07:32;;;;;;;6.03;2.67;;;14.20;99.90;;;;;;4994856;28;20507;-82
2022/05/27 04:09:58;;;;;;;5.10;3.63;;;14.20;99.90;;;;;;4977373;28;20720;-82
2022/05/27 04:12:23;;;;;;;4.17;2.80;;;14.30;99.90;;;;;;4994965;28;20657;-82
2022/05/27 04:14:50;;;;;;;3.10;2.13;;;14.40;99.90;;;;;;4977582;28;20569;-82
2022/05/27 04:17:30;;;;;;;4.03;2.50;;;14.40;99.90;;;;;;4994964;28;20174;-82
2022/05/27 04:19:57;;;;;;;4.47;2.60;;;14.40;99.90;;;;;;4977356;28;20444;-81
2022/05/27 04:22:23;;;;;;;4.00;2.70;;;14.40;99.90;;;;;;4977385;28;20811;-82
2022/05/27 04:24:49;;;;;;;4.40;2.40;;;14.50;99.90;;;;;;4977329;28;20500;-82
2022/05/27 04:27:18;;;;;;;5.80;2.50;;;14.50;99.90;;;;;;4977017;28;20500;-83
2022/05/27 04:29:46;;;;;;;3.63;2.50;;;14.60;99.90;;;;;;4977240;28;20260;-82
2022/05/27 04:32:12;;;;;;;4.10;2.70;;;14.60;99.90;;;;;;4977245;28;20431;-82
2022/05/27 04:34:40;;;;;;;4.63;2.60;;;14.70;99.90;;;;;;4977708;28;20924;-82
2022/05/27 04:37:07;;;;;;;4.93;2.93;;;14.70;99.90;;;;;;4990249;28;20431;-83
2022/05/27 04:39:32;;;;;;;3.73;2.70;;;14.70;99.90;;;;;;4980370;28;20807;-83
2022/05/27 04:41:58;;;;;;;4.90;4.40;;;14.80;99.90;;;;;;4980011;28;20666;-83
2022/05/27 04:44:23;;;;;;;3.63;2.53;;;14.80;99.90;;;;;;4979802;28;20182;-83
2022/05/27 04:46:49;;;;;;;6.37;3.80;;;14.70;99.90;;;;;;4979160;28;20220;-83
2022/05/27 04:52:00;;;;;;;5.10;3.20;;;14.50;99.90;;;;;;4996604;28;20428;-84
2022/05/27 04:54:27;;;;;;;4.93;2.90;;;14.50;99.90;;;;;;4997123;28;20899;-82
2022/05/27 04:56:54;;;;;;;5.13;3.33;;;14.50;99.90;;;;;;4980250;28;20792;-84
2022/05/27 04:59:20;;;;;;;5.23;3.27;;;14.50;99.90;;;;;;4980109;28;20424;-83
2022/05/27 05:01:46;;;;;;;5.03;3.30;;;14.40;99.90;;;;;;4978013;28;20916;-82
2022/05/27 05:04:11;;;;;;;5.47;3.07;;;14.40;99.90;;;;;;4994293;28;20182;-82
2022/05/27 05:06:37;;;;;;;4.70;3.30;;;14.50;99.90;;;;;;4976381;28;20185;-84
2022/05/27 05:09:03;;;;;;;5.40;3.27;;;14.40;99.90;;;;;;4976491;28;20185;-82
2022/05/27 05:11:29;;;;;;;4.53;3.20;;;14.30;99.90;;;;;;4976535;28;20301;-82
2022/05/27 05:13:54;;;;;;;5.87;3.43;;;14.30;99.90;;;;;;4976607;28;21054;-82
2022/05/27 05:16:20;;;;;;;4.93;3.23;;;14.40;99.90;;;;;;4976622;28;20188;-82
2022/05/27 05:18:46;;;;;;;6.30;3.63;;;14.40;99.90;;;;;;4976876;28;20192;-83
2022/05/27 05:21:11;;;;;;;4.77;2.47;;;14.30;99.90;;;;;;4993716;28;20240;-82
2022/05/27 05:23:37;;;;;;;5.20;3.60;;;14.40;99.90;;;;;;4976460;28;20228;-83
2022/05/27 05:26:02;;;;;;;5.30;3.80;;;14.40;99.90;;;;;;4976458;28;20181;-83
2022/05/27 05:28:28;;;;;;;6.47;3.50;;;14.40;99.90;;;;;;4994004;28;20705;-83
2022/05/27 05:30:53;;;;;;;5.07;3.40;;;14.30;99.90;;;;;;4993771;28;20292;-82
2022/05/27 05:33:19;;;;;;;7.60;4.23;;;14.30;99.90;;;;;;4995026;28;20210;-83
2022/05/27 05:35:46;;;;;;;6.27;4.03;;;14.30;99.90;;;;;;4976966;28;20177;-82
2022/05/27 05:38:12;;;;;;;8.00;4.70;;;14.40;99.90;;;;;;4995432;28;20210;-83
2022/05/27 05:40:38;;;;;;;8.13;4.30;;;14.40;99.90;;;;;;4994932;28;20436;-82
2022/05/27 05:43:04;;;;;;;7.80;4.50;;;14.40;99.90;;;;;;4995090;28;20228;-82
2022/05/27 05:45:30;;;;;;;7.50;4.47;;;14.40;99.90;;;;;;4994045;28;20424;-83
2022/05/27 05:47:56;;;;;;;7.00;5.57;;;14.40;99.90;;;;;;4975835;28;20197;-83
2022/05/27 05:50:21;;;;;;;6.97;5.27;;;14.40;99.90;;;;;;4994929;28;20202;-84
2022/05/27 05:52:47;;;;;;;6.37;4.67;;;14.50;99.90;;;;;;4977995;28;20233;-83
2022/05/27 05:55:14;;;;;;;8.00;4.77;;;14.50;99.90;;;;;;4977589;28;20197;-84
2022/05/27 05:57:42;;;;;;;5.90;4.33;;;14.50;99.90;;;;;;4977030;28;20557;-83
2022/05/27 06:00:11;;;;;;;6.03;4.17;;;14.50;99.90;;;;;;4994920;28;20433;-83
2022/05/27 06:02:36;;;;;;;6.53;2.83;;;14.60;99.90;;;;;;4977926;28;20421;-85
2022/05/27 06:05:03;;;;;;;3.50;2.10;;;14.50;99.90;;;;;;4996093;28;20476;-83
2022/05/27 06:07:30;;;;;;;3.00;2.07;;;14.60;99.90;;;;;;4979828;28;20273;-83
2022/05/27 06:09:56;;;;;;;2.83;1.63;;;14.60;99.90;;;;;;4996538;28;20437;-83
2022/05/27 06:12:23;;;;;;;3.37;2.00;;;14.60;99.90;;;;;;4980118;28;20424;-83
2022/05/27 06:14:50;;;;;;;4.03;1.90;;;14.60;99.90;;;;;;4979395;28;20181;-81
2022/05/27 06:17:16;;;;;;;2.90;1.67;;;14.60;99.90;;;;;;4996306;28;20413;-83
2022/05/27 06:19:41;;;;;;;3.80;2.10;;;14.60;99.90;;;;;;4978694;28;20433;-83
2022/05/27 06:22:07;;;;;;;3.27;1.90;;;14.50;99.90;;;;;;4996882;28;20201;-83
2022/05/27 06:24:33;;;;;;;2.70;1.50;;;14.60;99.90;;;;;;4978667;28;20186;-83
2022/05/27 06:26:59;;;;;;;3.67;1.80;;;14.60;99.90;;;;;;4977988;28;20429;-83
2022/05/27 06:34:53;;;;;;;3.20;1.50;;;14.60;99.90;;;;;;4999154;28;20783;-85
2022/05/27 06:37:21;;;;;;;2.80;1.80;;;14.50;99.90;;;;;;4980230;28;20500;-85
2022/05/27 06:39:47;;;;;;;3.77;2.00;;;14.40;99.90;;;;;;4980603;28;21027;-85
2022/05/27 06:42:14;;;;;;;3.07;1.93;;;14.40;99.90;;;;;;4980388;28;20443;-85
2022/05/27 06:44:40;;;;;;;3.23;1.80;;;14.50;99.90;;;;;;4979419;28;20416;-85
2022/05/27 06:47:07;;;;;;;3.93;2.13;;;14.60;99.90;;;;;;4978303;28;20491;-85
2022/05/27 06:49:33;;;;;;;3.10;1.50;;;14.60;99.90;;;;;;4997040;28;20189;-85
2022/05/27 06:51:59;;;;;;;3.27;1.93;;;14.60;99.90;;;;;;4979134;28;20413;-85
2022/05/27 06:54:25;;;;;;;3.53;1.80;;;14.50;99.90;;;;;;4979028;28;20987;-85
2022/05/27 06:56:52;;;;;;;3.70;1.73;;;14.40;99.90;;;;;;4978140;28;20173;-86
2022/05/27 06:59:20;;;;;;;3.00;2.03;;;14.30;99.90;;;;;;4998492;28;20455;-85
2022/05/27 07:01:46;;;;;;;3.83;2.17;;;14.20;99.90;;;;;;4981701;28;20957;-85
2022/05/27 07:04:12;;;;;;;3.57;1.90;;;14.20;99.90;;;;;;4999990;28;20409;-85
2022/05/27 07:06:43;;;;;;;4.30;2.30;;;14.20;99.90;;;;;;4999289;28;20209;-85
2022/05/27 07:09:15;;;;;;;4.37;2.10;;;14.30;99.90;;;;;;4981536;28;20883;-85
2022/05/27 07:11:43;;;;;;;5.27;2.53;;;14.30;99.90;;;;;;4999081;28;20417;-85
2022/05/27 07:14:09;;;;;;;3.10;2.13;;;14.30;99.90;;;;;;4981131;28;20464;-85
2022/05/27 07:16:35;;;;;;;2.73;1.67;;;14.30;99.90;;;;;;4981015;28;21011;-85
2022/05/27 07:19:01;;;;;;;3.40;1.83;;;14.30;99.90;;;;;;4998478;28;20170;-84
2022/05/27 07:21:26;;;;;;;2.70;1.60;;;14.30;99.90;;;;;;4980390;28;20858;-83
2022/05/27 07:23:53;;;;;;;2.80;1.83;;;14.30;99.90;;;;;;4980220;28;20184;-84
2022/05/27 07:26:20;;;;;;;4.60;1.97;;;14.30;99.90;;;;;;4980154;28;20194;-83
2022/05/27 07:28:46;;;;;;;2.90;1.50;;;14.40;99.90;;;;;;4980900;28;20445;-83
2022/05/27 07:31:11;;;;;;;2.60;1.53;;;14.50;99.90;;;;;;4998326;28;20436;-84
2022/05/27 07:33:37;;;;;;;3.83;1.87;;;14.60;99.90;;;;;;5002788;28;20247;-86
2022/05/27 07:36:03;;;;;;;4.20;2.43;;;14.70;99.90;;;;;;4996444;28;20707;-82
2022/05/27 07:38:29;;;;;;;6.80;2.20;;;14.70;99.90;;;;;;5018722;28;20418;-81
2022/05/27 07:40:54;;;;;;;3.63;2.10;;;14.70;99.90;;;;;;5018684;28;20205;-81
2022/05/27 07:43:20;;;;;;;3.17;1.93;;;14.70;99.90;;;;;;5000022;28;20189;-83
2022/05/27 07:45:47;;;;;;;3.83;1.67;;;14.80;99.90;;;;;;5017298;28;20181;-84
2022/05/27 07:48:12;;;;;;;3.73;2.87;;;15.10;99.90;;;;;;5018323;28;20455;-83
2022/05/27 07:50:40;;;;;;;3.63;1.90;;;15.30;99.90;;;;;;5000230;28;20448;-84
2022/05/27 07:53:06;;;;;;;3.73;2.20;;;15.50;99.90;;;;;;4998573;28;20234;-81
2022/05/27 07:55:32;;;;;;;3.27;1.80;;;15.80;99.90;;;;;;4998258;28;20416;-82
2022/05/27 07:57:58;;;;;;;3.87;2.07;;;15.90;99.90;;;;;;4999745;28;20422;-82
2022/05/27 08:00:27;;;;;;;3.70;2.10;;;16.10;99.90;;;;;;4999783;28;20530;-82
2022/05/27 08:02:54;;;;;;;3.60;1.77;;;16.20;99.90;;;;;;4999957;28;20475;-82
2022/05/27 08:05:22;;;;;;;3.67;1.80;;;16.40;99.90;;;;;;5016716;28;20968;-80
2022/05/27 08:07:49;;;;;;;3.77;2.07;;;16.60;99.90;;;;;;4999278;28;20543;-80
2022/05/27 08:10:19;;;;;;;4.90;2.00;;;16.60;99.90;;;;;;4998360;28;20440;-82
2022/05/27 08:12:44;;;;;;;3.87;2.03;;;16.80;99.90;;;;;;5018031;28;20444;-81
2022/05/27 08:15:12;;;;;;;5.63;2.53;;;16.80;99.90;;;;;;5018135;28;20416;-83
2022/05/27 08:17:38;;;;;;;3.60;2.33;;;16.70;99.90;;;;;;5001150;28;20177;-83
2022/05/27 08:20:06;;;;;;;3.50;2.23;;;17.00;99.90;;;;;;5018258;28;20428;-83
2022/05/27 08:22:31;;;;;;;3.53;2.10;;;17.20;99.90;;;;;;5000706;28;20782;-85
2022/05/27 08:24:57;;;;;;;3.10;2.03;;;17.20;99.90;;;;;;4999766;28;20432;-84
2022/05/27 08:27:23;;;;;;;4.20;2.53;;;17.50;99.90;;;;;;5000235;28;20679;-84
2022/05/27 08:29:48;;;;;;;3.53;2.27;;;18.20;99.90;;;;;;4999183;28;20209;-82
2022/05/27 08:32:14;;;;;;;5.17;2.67;;;18.70;99.90;;;;;;4999428;28;20593;-82
2022/05/27 08:40:29;;;;;;;4.70;2.60;;;18.50;99.90;;;;;;5017006;28;20438;-82
2022/05/27 08:43:26;;;;;;;4.73;3.50;;;18.40;99.90;;;;;;4998732;28;20414;-81
2022/05/27 08:46:02;;;;;;;4.90;3.07;;;18.70;99.90;;;;;;4998182;28;20432;-83
2022/05/27 08:48:32;;;;;;;5.73;2.83;;;20.40;99.90;;;;;;4998124;28;20485;-83
2022/05/27 08:51:29;;;;;;;4.67;3.70;;;22.50;99.90;;;;;;4997452;28;20455;-82
2022/05/27 08:54:22;;;;;;;3.13;2.53;;;24.20;99.90;;;;;;4996647;28;20487;-82
2022/05/27 08:59:58;;;;;;;4.80;2.97;;;23.80;99.90;;;;;;4995640;28;20459;-82
2022/05/27 09:02:36;;;;;;;6.20;3.23;;;24.10;99.90;;;;;;4978448;28;20479;-82
2022/05/27 09:05:32;;;;;;;4.07;3.20;;;25.00;99.90;;;;;;5009575;28;20443;-82
2022/05/27 09:08:17;;;;;;;6.70;3.33;;;24.70;99.90;;;;;;4992988;28;20413;-83
2022/05/27 09:11:16;;;;;;;5.37;3.90;;;25.50;99.90;;;;;;4996868;28;20534;-82
2022/05/27 09:13:56;;;;;;;3.83;3.00;;;25.40;99.90;;;;;;4996959;28;20971;-82
2022/05/27 09:16:42;;;;;;;5.40;3.73;;;24.20;99.90;;;;;;5013731;28;20404;-82
2022/05/27 09:19:29;;;;;;;4.87;3.30;;;24.50;99.90;;;;;;4996454;28;20420;-81
2022/05/27 09:22:16;;;;;;;3.93;3.00;;;25.00;99.90;;;;;;5013687;28;20424;-81
2022/05/27 09:25:00;;;;;;;3.80;2.93;;;26.60;99.90;;;;;;5016332;28;20899;-81
2022/05/27 09:28:20;;;;;;;5.03;3.20;;;26.90;99.90;;;;;;4997499;28;20420;-81
2022/05/27 09:30:45;;;;;;;4.20;3.40;;;25.30;99.90;;;;;;4919271;29;20452;-80
2022/05/27 09:33:16;;;;;;;5.47;3.73;;;24.30;99.90;;;;;;4919459;29;20463;-81
2022/05/27 09:35:55;;;;;;;6.13;2.93;;;24.20;99.90;;;;;;4958332;28;20192;-80
2022/05/27 09:38:27;;;;;;;5.33;3.37;;;25.00;99.90;;;;;;4997019;28;20416;-81
2022/05/27 09:40:56;;;;;;;6.77;3.20;;;24.20;99.90;;;;;;4997116;28;20436;-80
2022/05/27 09:43:33;;;;;;;4.30;2.90;;;23.10;99.90;;;;;;4997336;28;20420;-82
2022/05/27 09:46:03;;;;;;;5.07;2.90;;;22.10;99.90;;;;;;4996887;28;20976;-82
2022/05/27 09:48:28;;;;;;;7.67;3.20;;;21.80;99.90;;;;;;5014912;28;20458;-83
2022/05/27 09:50:57;;;;;;;6.37;3.57;;;22.00;99.90;;;;;;4996341;28;20436;-83
2022/05/27 09:53:32;;;;;;;3.60;3.03;;;23.80;99.90;;;;;;5014471;28;20204;-81
2022/05/27 09:56:04;;;;;;;6.27;3.13;;;26.20;99.90;;;;;;4996763;28;20566;-81
2022/05/27 09:58:37;;;;;;;5.30;3.27;;;28.30;99.90;;;;;;4996421;28;20495;-82
2022/05/27 10:01:24;;;;;;;6.93;2.97;;;29.50;98.20;;;;;;5020779;28;20826;-82
2022/05/27 10:04:03;;;;;;;5.93;2.90;;;29.70;95.90;;;;;;4997923;28;20464;-83
2022/05/27 10:06:32;;;;;;;4.20;3.00;;;30.30;92.30;;;;;;4997493;28;20501;-82
2022/05/27 10:09:00;;;;;;;6.53;3.23;;;31.00;89.00;;;;;;4998140;28;20430;-82
2022/05/27 10:11:26;;;;;;;4.30;2.40;;;28.90;85.20;;;;;;4995393;28;20451;-82
2022/05/27 10:14:10;;;;;;;4.97;2.90;;;28.70;92.10;;;;;;4995245;28;20831;-82
2022/05/27 10:16:38;;;;;;;6.40;3.03;;;27.90;90.90;;;;;;5013454;28;20169;-82
2022/05/27 10:19:13;;;;;;;4.97;3.20;;;27.60;95.30;;;;;;4996885;28;20448;-82
2022/05/27 10:21:50;;;;;;;5.90;2.53;;;27.70;93.80;;;;;;4995838;28;20463;-82
2022/05/27 10:24:34;;;;;;;4.43;2.43;;;27.50;90.50;;;;;;4995011;28;20800;-82
2022/05/27 10:27:12;;;;;;;3.70;2.40;;;27.70;91.70;;;;;;5012813;28;20408;-82
2022/05/27 10:29:48;;;;;;;4.93;2.53;;;27.20;84.50;;;;;;5013194;28;20431;-82
2022/05/27 10:32:28;;;;;;;4.73;2.50;;;26.80;89.60;;;;;;4995047;28;20470;-83
2022/05/27 10:34:54;;;;;;;4.93;2.90;;;25.80;88.40;;;;;;5000240;28;20430;-81
2022/05/27 10:37:33;;;;;;;3.93;2.20;;;25.70;94.20;;;;;;5016210;28;20408;-82
2022/05/27 10:40:10;;;;;;;4.87;2.40;;;25.50;95.30;;;;;;5016297;28;20434;-83
2022/05/27 10:42:46;;;;;;;4.47;2.57;;;25.00;93.10;;;;;;5016203;28;20404;-80
2022/05/27 10:45:30;;;;;;;8.90;2.80;;;24.60;98.50;;;;;;5016038;28;20391;-82
2022/05/27 10:48:24;;;;;;;5.43;3.53;;;23.90;99.10;;;;;;4998422;28;20404;-82
2022/05/27 10:51:04;;;;;;;4.17;2.10;;;23.20;99.90;;;;;;5015751;28;20873;-83
2022/05/27 10:53:32;;;;;;;3.40;2.37;;;22.90;99.90;;;;;;5012247;28;20451;-83
2022/05/27 10:56:16;;;;;;;4.13;2.20;;;22.50;99.90;;;;;;4978276;28;20428;-83
2022/05/27 11:02:33;;;;;;;5.67;2.67;;;22.10;99.90;;;;;;4996396;28;20396;-83
2022/05/27 11:05:24;;;;;;;4.13;2.30;;;22.00;99.90;;;;;;4993641;28;20451;-83
2022/05/27 11:08:03;;;;;;;3.10;2.07;;;21.70;99.90;;;;;;4980663;28;20412;-84
2022/05/27 11:10:43;;;;;;;5.37;2.27;;;21.30;99.90;;;;;;5015092;28;20989;-84
2022/05/27 11:16:54;;;;;;;6.10;4.43;;;20.60;99.90;;;;;;4980967;28;20591;-84
2022/05/27 11:19:57;;;;;;;4.00;2.50;;;20.40;99.90;;;;;;4979021;28;20444;-83
2022/05/27 11:22:26;;;;;;;4.30;2.50;;;20.60;99.90;;;;;;4996798;28;20482;-84
2022/05/27 11:25:16;;;;;;;3.60;2.43;;;20.90;99.90;;;;;;5002175;28;20493;-86
2022/05/27 11:28:04;;;;;;;5.63;2.37;;;20.90;99.90;;;;;;5014777;28;20947;-83
2022/05/27 11:30:38;;;;;;;4.50;2.83;;;20.90;99.90;;;;;;4997334;28;20443;-83
2022/05/27 11:33:44;;;;;;;5.90;2.27;;;20.60;99.90;;;;;;4998181;28;20459;-83
2022/05/27 11:36:15;;;;;;;4.37;2.60;;;20.80;99.90;;;;;;5015474;28;20415;-85
2022/05/27 11:38:59;;;;;;;5.00;2.80;;;21.00;99.90;;;;;;4991248;28;20471;-84
2022/05/27 11:41:46;;;;;;;5.47;2.60;;;21.20;99.90;;;;;;4978015;28;20590;-85
2022/05/27 11:44:43;;;;;;;6.67;2.33;;;21.40;99.90;;;;;;4977833;28;20904;-85
2022/05/27 11:47:27;;;;;;;4.03;2.60;;;22.00;99.90;;;;;;4944875;28;20801;-85
2022/05/27 11:49:59;;;;;;;4.37;2.30;;;22.30;99.90;;;;;;4996795;28;20436;-84
2022/05/27 11:52:59;;;;;;;6.20;2.80;;;22.80;99.90;;;;;;4979587;28;20425;-84
2022/05/27 11:55:51;;;;;;;6.43;2.60;;;22.60;99.90;;;;;;4977794;28;20445;-83
2022/05/27 11:58:29;;;;;;;5.03;2.50;;;22.60;99.90;;;;;;4978238;28;20431;-82
2022/05/27 12:01:03;;;;;;;6.33;2.53;;;22.60;99.90;;;;;;4979975;28;20436;-82
2022/05/27 12:03:34;;;;;;;3.70;2.57;;;22.30;99.90;;;;;;4983283;28;20502;-85
2022/05/27 12:06:07;;;;;;;4.37;2.93;;;22.00;99.90;;;;;;4982381;28;20416;-85
2022/05/27 12:08:58;;;;;;;4.83;2.30;;;22.00;99.90;;;;;;5000355;28;20433;-85
2022/05/27 12:11:35;;;;;;;4.83;3.60;;;21.70;99.90;;;;;;5000247;28;20428;-85
2022/05/27 12:14:13;;;;;;;4.30;2.40;;;21.80;99.90;;;;;;4981781;28;20565;-84
2022/05/27 12:16:42;;;;;;;3.00;1.90;;;21.90;99.90;;;;;;4982024;28;21059;-85
2022/05/27 12:19:13;;;;;;;4.10;2.03;;;22.30;99.90;;;;;;4982526;28;20475;-85
2022/05/27 12:21:49;;;;;;;4.30;2.03;;;22.40;99.90;;;;;;4981488;28;20452;-84
2022/05/27 12:24:24;;;;;;;3.80;2.07;;;22.30;99.90;;;;;;4999122;28;20409;-85
2022/05/27 12:26:55;;;;;;;6.03;1.90;;;22.30;99.90;;;;;;4980778;28;20461;-85
2022/05/27 12:29:23;;;;;;;5.33;1.97;;;22.40;99.90;;;;;;4980733;28;20473;-84
2022/05/27 12:31:51;;;;;;;2.97;2.03;;;22.50;99.10;;;;;;4998598;28;20417;-84
2022/05/27 12:34:26;;;;;;;6.13;1.80;;;22.30;96.50;;;;;;4980277;28;20840;-84
2022/05/27 12:36:52;;;;;;;3.70;2.13;;;22.50;95.90;;;;;;4979988;28;20428;-84
2022/05/27 12:39:30;;;;;;;3.83;1.97;;;22.90;99.30;;;;;;4980943;28;20425;-84
2022/05/27 12:42:19;;;;;;;3.93;1.80;;;23.00;99.90;;;;;;4980938;28;20416;-84
2022/05/27 12:44:47;;;;;;;2.77;1.80;;;22.70;98.40;;;;;;4998119;28;20417;-85
2022/05/27 12:47:19;;;;;;;3.60;1.80;;;22.60;99.40;;;;;;4998436;28;20468;-86
2022/05/27 12:50:06;;;;;;;3.67;2.20;;;23.00;96.80;;;;;;4982791;28;20445;-85
2022/05/27 12:52:32;;;;;;;3.97;2.40;;;23.20;97.20;;;;;;4982068;28;20433;-88
2022/05/27 12:55:11;;;;;;;4.30;2.47;;;23.10;97.20;;;;;;4999897;28;20424;-87
2022/05/27 13:00:57;;;;;;;2.50;1.70;;;22.90;93.90;;;;;;4998487;28;20968;-86
2022/05/27 13:03:35;;;;;;;6.53;2.43;;;23.00;90.40;;;;;;4980467;28;20435;-85
2022/05/27 13:06:33;;;;;;;4.93;2.30;;;22.90;88.20;;;;;;4980750;28;20429;-85
2022/05/27 13:09:04;;;;;;;4.10;2.90;;;22.70;88.50;;;;;;4980323;28;20985;-87
2022/05/27 13:11:39;;;;;;;3.57;1.80;;;22.50;89.30;;;;;;4981312;28;20451;-87
2022/05/27 13:14:04;;;;;;;5.53;2.77;;;22.60;91.70;;;;;;4979338;28;20463;-85
2022/05/27 13:16:43;;;;;;;3.97;2.00;;;22.30;92.60;;;;;;4997368;28;20423;-83
2022/05/27 13:19:22;;;;;;;3.40;2.47;;;22.60;92.60;;;;;;4980713;28;20174;-85
2022/05/27 13:22:00;;;;;;;4.47;1.93;;;22.80;92.60;;;;;;4979796;28;20803;-86
2022/05/27 13:24:30;;;;;;;5.00;2.23;;;22.70;85.20;;;;;;4979717;28;20429;-85
2022/05/27 13:26:59;;;;;;;2.97;1.67;;;23.00;92.70;;;;;;4997118;28;20405;-83
2022/05/27 13:29:43;;;;;;;5.43;2.43;;;23.40;89.20;;;;;;4996049;28;20928;-85
2022/05/27 13:32:22;;;;;;;4.60;2.10;;;22.90;83.90;;;;;;4979381;28;20420;-85
2022/05/27 13:34:50;;;;;;;3.97;1.70;;;23.60;86.00;;;;;;4979077;28;20493;-85
2022/05/27 13:37:25;;;;;;;5.33;1.93;;;23.70;80.60;;;;;;4978724;28;20479;-86
2022/05/27 13:39:55;;;;;;;4.90;1.90;;;23.50;85.40;;;;;;4979796;28;20441;-83
2022/05/27 13:42:49;;;;;;;4.43;2.10;;;23.10;84.30;;;;;;4997359;28;20848;-82
2022/05/27 13:45:51;;;;;;;5.57;2.20;;;22.60;84.60;;;;;;4979263;28;20420;-85
2022/05/27 13:48:28;;;;;;;3.47;2.23;;;22.30;84.90;;;;;;4979059;28;20424;-85